createdAt,value
2023-01-19T00:00:20.709Z,10.30
2023-01-19T00:01:20.349Z,6.80
2023-01-19T00:02:20.314Z,8.60
2023-01-19T00:03:20.339Z,8.10
2023-01-19T00:04:20.378Z,8.10
2023-01-19T00:05:20.287Z,8.00
2023-01-19T00:06:20.380Z,8.00
2023-01-19T00:07:20.274Z,8.60
2023-01-19T00:08:20.249Z,8.50
2023-01-19T00:09:20.263Z,7.80
2023-01-19T00:10:20.228Z,7.80
2023-01-19T00:11:20.281Z,8.80
2023-01-19T00:12:20.235Z,8.60
2023-01-19T00:13:20.233Z,6.80
2023-01-19T00:14:20.196Z,7.20
2023-01-19T00:15:20.203Z,9.30
2023-01-19T00:16:20.260Z,7.90
2023-01-19T00:17:20.160Z,8.00
2023-01-19T00:18:20.161Z,7.00
2023-01-19T00:19:20.174Z,9.10
2023-01-19T00:20:20.139Z,8.50
2023-01-19T00:21:20.180Z,9.10
2023-01-19T00:22:20.126Z,8.20
2023-01-19T00:23:20.135Z,10.80
2023-01-19T00:24:20.107Z,8.00
2023-01-19T00:25:20.112Z,9.80
2023-01-19T00:26:20.114Z,9.50
2023-01-19T00:27:20.063Z,7.90
2023-01-19T00:28:20.075Z,10.30
2023-01-19T00:29:20.067Z,7.30
2023-01-19T00:30:20.044Z,9.70
2023-01-19T00:31:20.066Z,8.70
2023-01-19T00:32:20.035Z,6.90
2023-01-19T00:33:20.025Z,7.60
2023-01-19T00:34:20.011Z,9.30
2023-01-19T00:35:19.988Z,9.60
2023-01-19T00:36:20.026Z,7.30
2023-01-19T00:37:19.993Z,10.30
2023-01-19T00:38:19.961Z,9.50
2023-01-19T00:39:19.943Z,9.70
2023-01-19T00:40:19.928Z,7.40
2023-01-19T00:41:19.945Z,7.30
2023-01-19T00:42:19.976Z,9.10
2023-01-19T00:43:19.921Z,7.40
2023-01-19T00:44:19.924Z,7.70
2023-01-19T00:45:19.877Z,8.00
2023-01-19T00:46:19.910Z,10.30
2023-01-19T00:47:19.927Z,9.10
2023-01-19T00:48:19.883Z,8.80
2023-01-19T00:49:19.869Z,9.10
2023-01-19T00:50:19.873Z,8.00
2023-01-19T00:51:19.838Z,10.30
2023-01-19T00:52:19.845Z,6.80
2023-01-19T00:53:19.822Z,10.10
2023-01-19T00:54:19.800Z,7.40
2023-01-19T00:55:19.810Z,8.30
2023-01-19T00:56:19.818Z,9.30
2023-01-19T00:57:19.834Z,8.50
2023-01-19T00:58:19.775Z,7.20
2023-01-19T00:59:19.765Z,12.40
2023-01-19T01:00:19.768Z,9.30
2023-01-19T01:01:19.875Z,10.40
2023-01-19T01:02:19.954Z,8.60
2023-01-19T01:03:19.769Z,9.60
2023-01-19T01:04:19.718Z,8.70
2023-01-19T01:05:19.751Z,8.90
2023-01-19T01:06:19.714Z,7.80
2023-01-19T01:07:19.712Z,10.30
2023-01-19T01:08:19.693Z,6.80
2023-01-19T01:09:19.676Z,8.30
2023-01-19T01:10:19.680Z,7.70
2023-01-19T01:11:19.662Z,8.30
2023-01-19T01:12:19.672Z,9.80
2023-01-19T01:13:21.023Z,9.00
2023-01-19T01:14:19.640Z,9.20
2023-01-19T01:15:19.618Z,9.80
2023-01-19T01:16:19.614Z,9.50
2023-01-19T01:17:19.617Z,12.40
2023-01-19T01:18:19.572Z,10.10
2023-01-19T01:19:19.563Z,7.20
2023-01-19T01:20:19.585Z,11.60
2023-01-19T01:21:19.607Z,10.30
2023-01-19T01:22:19.601Z,9.70
2023-01-19T01:23:19.528Z,7.90
2023-01-19T01:24:19.531Z,8.10
2023-01-19T01:25:19.542Z,8.20
2023-01-19T01:26:19.520Z,9.90
2023-01-19T01:27:19.512Z,8.60
2023-01-19T01:28:19.538Z,8.00
2023-01-19T01:29:19.472Z,11.50
2023-01-19T01:30:19.484Z,8.90
2023-01-19T01:31:19.486Z,12.40
2023-01-19T01:32:19.460Z,8.00
2023-01-19T01:33:41.011Z,10.50
2023-01-19T01:34:19.417Z,10.40
2023-01-19T01:35:19.415Z,7.60
2023-01-19T01:36:19.395Z,9.30
2023-01-19T01:37:19.422Z,9.70
2023-01-19T01:38:19.387Z,10.50
2023-01-19T01:39:19.379Z,9.90
2023-01-19T01:40:19.360Z,8.00
2023-01-19T01:41:21.143Z,10.70
2023-01-19T01:42:19.375Z,10.00
2023-01-19T01:43:19.368Z,9.30
2023-01-19T01:44:19.327Z,12.60
2023-01-19T01:45:19.332Z,8.30
2023-01-19T01:46:19.314Z,10.50
2023-01-19T01:47:19.349Z,10.00
2023-01-19T01:48:19.345Z,11.00
2023-01-19T01:49:19.271Z,10.80
2023-01-19T01:50:19.299Z,8.50
2023-01-19T01:51:19.311Z,11.10
2023-01-19T01:52:19.246Z,10.40
2023-01-19T01:53:19.281Z,9.50
2023-01-19T01:54:19.324Z,9.20
2023-01-19T01:55:19.225Z,10.70
2023-01-19T01:56:19.220Z,8.50
2023-01-19T01:57:19.278Z,12.30
2023-01-19T01:58:19.251Z,8.90
2023-01-19T01:59:25.930Z,11.90
2023-01-19T02:00:19.157Z,10.10
2023-01-19T02:01:19.263Z,10.60
2023-01-19T02:02:19.163Z,10.70
2023-01-19T02:03:19.212Z,11.40
2023-01-19T02:04:19.124Z,9.70
2023-01-19T02:05:19.120Z,12.10
2023-01-19T02:06:19.128Z,9.90
2023-01-19T02:07:19.161Z,11.40
2023-01-19T02:08:19.147Z,9.30
2023-01-19T02:09:19.078Z,12.00
2023-01-19T02:10:26.631Z,12.50
2023-01-19T02:11:19.047Z,13.80
2023-01-19T02:12:25.599Z,12.60
2023-01-19T02:13:19.053Z,13.10
2023-01-19T02:14:19.040Z,10.10
2023-01-19T02:15:19.074Z,11.50
2023-01-19T02:16:19.009Z,9.40
2023-01-19T02:17:19.008Z,11.70
2023-01-19T02:18:18.990Z,11.00
2023-01-19T02:19:18.998Z,8.20
2023-01-19T02:20:18.973Z,9.90
2023-01-19T02:21:19.009Z,11.40
2023-01-19T02:22:19.010Z,9.50
2023-01-19T02:23:18.963Z,9.60
2023-01-19T02:24:18.931Z,9.20
2023-01-19T02:25:18.924Z,11.70
2023-01-19T02:26:18.936Z,10.00
2023-01-19T02:27:18.939Z,9.70
2023-01-19T02:28:18.925Z,8.70
2023-01-19T02:29:18.868Z,9.80
2023-01-19T02:30:18.863Z,10.50
2023-01-19T02:31:18.898Z,9.80
2023-01-19T02:32:18.876Z,9.20
2023-01-19T02:33:18.860Z,11.10
2023-01-19T02:34:18.862Z,12.70
2023-01-19T02:35:18.822Z,10.00
2023-01-19T02:36:18.890Z,8.10
2023-01-19T02:37:18.884Z,11.00
2023-01-19T02:38:18.837Z,7.80
2023-01-19T02:39:26.300Z,9.50
2023-01-19T02:40:26.331Z,10.30
2023-01-19T02:41:26.297Z,8.00
2023-01-19T02:42:25.255Z,10.40
2023-01-19T02:43:18.753Z,14.00
2023-01-19T02:44:18.721Z,9.50
2023-01-19T02:45:18.732Z,9.90
2023-01-19T02:46:18.761Z,10.00
2023-01-19T02:47:18.703Z,11.50
2023-01-19T02:48:18.718Z,10.00
2023-01-19T02:49:18.719Z,11.20
2023-01-19T02:50:18.691Z,10.00
2023-01-19T02:51:18.831Z,10.10
2023-01-19T02:52:18.639Z,10.00
2023-01-19T02:53:18.709Z,9.80
2023-01-19T02:54:18.630Z,10.70
2023-01-19T02:55:18.618Z,11.50
2023-01-19T02:56:18.652Z,10.90
2023-01-19T02:57:18.627Z,10.20
2023-01-19T02:58:18.618Z,13.30
2023-01-19T02:59:18.630Z,11.30
2023-01-19T03:00:18.567Z,9.80
2023-01-19T03:01:26.249Z,12.40
2023-01-19T03:02:26.168Z,11.80
2023-01-19T03:03:27.576Z,11.30
2023-01-19T03:04:25.068Z,11.30
2023-01-19T03:05:25.153Z,9.00
2023-01-19T03:06:26.125Z,14.60
2023-01-19T03:07:18.515Z,14.30
2023-01-19T03:08:18.480Z,13.30
2023-01-19T03:09:18.510Z,11.10
2023-01-19T03:10:18.494Z,9.50
2023-01-19T03:11:18.500Z,10.30
2023-01-19T03:12:18.506Z,12.00
2023-01-19T03:13:18.446Z,10.30
2023-01-19T03:14:18.452Z,10.10
2023-01-19T03:15:18.421Z,9.10
2023-01-19T03:16:18.450Z,11.00
2023-01-19T03:17:18.396Z,10.40
2023-01-19T03:18:18.391Z,12.00
2023-01-19T03:19:18.411Z,13.80
2023-01-19T03:20:18.364Z,11.80
2023-01-19T03:21:18.371Z,12.00
2023-01-19T03:22:18.354Z,10.10
2023-01-19T03:23:18.364Z,12.60
2023-01-19T03:24:18.362Z,10.80
2023-01-19T03:25:18.316Z,13.90
2023-01-19T03:26:18.338Z,10.10
2023-01-19T03:27:18.309Z,11.10
2023-01-19T03:28:18.290Z,11.60
2023-01-19T03:29:18.325Z,11.60
2023-01-19T03:30:18.281Z,15.40
2023-01-19T03:31:18.333Z,9.00
2023-01-19T03:32:18.273Z,8.60
2023-01-19T03:33:18.271Z,8.90
2023-01-19T03:34:18.257Z,9.40
2023-01-19T03:35:18.216Z,12.30
2023-01-19T03:36:18.207Z,13.40
2023-01-19T03:37:18.288Z,9.80
2023-01-19T03:38:18.237Z,11.00
2023-01-19T03:39:18.202Z,8.90
2023-01-19T03:40:18.204Z,8.30
2023-01-19T03:41:18.215Z,10.70
2023-01-19T03:42:18.195Z,12.20
2023-01-19T03:43:18.141Z,10.30
2023-01-19T03:44:18.157Z,8.70
2023-01-19T03:45:18.147Z,11.50
2023-01-19T03:46:18.159Z,11.70
2023-01-19T03:47:18.138Z,9.50
2023-01-19T03:48:18.110Z,12.00
2023-01-19T03:49:18.139Z,12.00
2023-01-19T03:50:18.113Z,13.30
2023-01-19T03:51:18.080Z,14.00
2023-01-19T03:52:18.056Z,11.00
2023-01-19T03:53:18.059Z,13.10
2023-01-19T03:54:18.050Z,11.40
2023-01-19T03:55:18.043Z,12.10
2023-01-19T03:56:18.043Z,8.40
2023-01-19T03:57:18.020Z,11.00
2023-01-19T03:58:17.988Z,13.60
2023-01-19T03:59:18.023Z,12.70
2023-01-19T04:00:17.990Z,9.60
2023-01-19T04:01:18.075Z,10.00
2023-01-19T04:02:18.032Z,10.90
2023-01-19T04:03:18.022Z,10.10
2023-01-19T04:04:17.983Z,12.00
2023-01-19T04:05:17.945Z,13.60
2023-01-19T04:06:17.941Z,10.50
2023-01-19T04:07:18.035Z,11.70
2023-01-19T04:08:17.928Z,10.50
2023-01-19T04:09:19.355Z,10.70
2023-01-19T04:10:17.898Z,13.70
2023-01-19T04:11:18.136Z,12.20
2023-01-19T04:13:45.583Z,10.20
2023-01-19T04:14:46.615Z,9.70
2023-01-19T04:15:46.650Z,11.30
2023-01-19T04:16:46.612Z,11.20
2023-01-19T04:17:46.613Z,13.10
2023-01-19T04:18:46.560Z,12.00
2023-01-19T04:19:46.563Z,9.30
2023-01-19T04:20:46.548Z,10.60
2023-01-19T04:21:46.519Z,8.70
2023-01-19T04:22:46.528Z,9.60
2023-01-19T04:23:46.492Z,10.30
2023-01-19T04:24:46.559Z,15.50
2023-01-19T04:25:46.483Z,10.90
2023-01-19T04:26:53.056Z,8.60
2023-01-19T04:27:53.069Z,12.10
2023-01-19T04:28:52.987Z,12.00
2023-01-19T04:29:46.509Z,11.60
2023-01-19T04:30:46.426Z,11.00
2023-01-19T04:31:46.435Z,14.60
2023-01-19T04:32:46.428Z,12.50
2023-01-19T04:33:46.439Z,11.00
2023-01-19T04:34:46.423Z,9.00
2023-01-19T04:35:46.385Z,8.60
2023-01-19T04:36:46.377Z,10.50
2023-01-19T04:37:46.394Z,10.70
2023-01-19T04:38:46.351Z,10.80
2023-01-19T04:39:46.380Z,13.30
2023-01-19T04:40:46.331Z,11.20
2023-01-19T04:41:46.333Z,7.80
2023-01-19T04:42:46.355Z,8.30
2023-01-19T04:43:46.305Z,9.10
2023-01-19T04:44:46.365Z,8.70
2023-01-19T04:45:46.301Z,8.60
2023-01-19T04:46:46.324Z,7.80
2023-01-19T04:47:46.289Z,10.40
2023-01-19T04:48:46.296Z,10.00
2023-01-19T04:49:46.279Z,9.90
2023-01-19T04:50:46.264Z,7.80
2023-01-19T04:51:46.264Z,6.90
2023-01-19T04:52:46.292Z,6.20
2023-01-19T04:53:46.213Z,8.00
2023-01-19T04:54:46.252Z,9.40
2023-01-19T04:55:52.712Z,6.50
2023-01-19T04:56:52.724Z,7.20
2023-01-19T04:57:52.689Z,9.40
2023-01-19T04:58:52.718Z,8.60
2023-01-19T04:59:46.192Z,9.00
2023-01-19T05:00:46.157Z,8.70
2023-01-19T05:01:46.262Z,7.90
2023-01-19T05:02:46.161Z,10.00
2023-01-19T05:03:46.098Z,8.30
2023-01-19T05:04:46.125Z,9.20
2023-01-19T05:05:46.089Z,9.40
2023-01-19T05:06:46.097Z,9.40
2023-01-19T05:07:46.069Z,9.10
2023-01-19T05:08:46.078Z,8.20
2023-01-19T05:09:46.074Z,7.90
2023-01-19T05:10:46.066Z,9.20
2023-01-19T05:11:46.046Z,10.20
2023-01-19T05:12:46.065Z,10.90
2023-01-19T05:13:46.045Z,9.60
2023-01-19T05:14:46.053Z,10.00
2023-01-19T05:15:46.069Z,9.80
2023-01-19T05:16:45.990Z,8.20
2023-01-19T05:17:46.000Z,8.70
2023-01-19T05:18:45.986Z,9.90
2023-01-19T05:19:45.990Z,9.90
2023-01-19T05:20:45.950Z,9.90
2023-01-19T05:21:45.961Z,11.50
2023-01-19T05:22:45.956Z,13.90
2023-01-19T05:23:45.933Z,11.80
2023-01-19T05:24:45.936Z,11.30
2023-01-19T05:25:45.929Z,12.90
2023-01-19T05:26:45.915Z,13.40
2023-01-19T05:27:45.891Z,11.10
2023-01-19T05:28:45.892Z,12.70
2023-01-19T05:29:45.886Z,11.70
2023-01-19T05:30:45.880Z,10.70
2023-01-19T05:31:45.941Z,9.40
2023-01-19T05:32:45.848Z,10.70
2023-01-19T05:33:45.860Z,9.90
2023-01-19T05:34:45.827Z,8.10
2023-01-19T05:35:45.833Z,14.60
2023-01-19T05:36:45.795Z,14.10
2023-01-19T05:37:45.822Z,16.10
2023-01-19T05:38:45.786Z,15.10
2023-01-19T05:39:45.760Z,15.30
2023-01-19T05:40:45.780Z,15.90
2023-01-19T05:41:45.798Z,14.20
2023-01-19T05:42:45.767Z,13.00
2023-01-19T05:43:45.702Z,11.90
2023-01-19T05:44:45.737Z,10.50
2023-01-19T05:45:45.799Z,12.50
2023-01-19T05:46:45.851Z,12.70
2023-01-19T05:47:45.720Z,10.00
2023-01-19T05:48:45.717Z,11.20
2023-01-19T05:49:45.687Z,11.50
2023-01-19T05:50:45.728Z,16.50
2023-01-19T05:51:45.711Z,15.00
2023-01-19T05:52:45.650Z,12.30
2023-01-19T05:53:45.641Z,12.80
2023-01-19T05:54:45.681Z,10.90
2023-01-19T05:55:45.656Z,13.60
2023-01-19T05:56:45.603Z,15.30
2023-01-19T05:57:45.587Z,16.20
2023-01-19T05:58:45.659Z,20.30
2023-01-19T05:59:45.578Z,15.70
2023-01-19T06:00:45.627Z,13.70
2023-01-19T06:01:45.641Z,15.10
2023-01-19T06:02:45.578Z,15.00
2023-01-19T06:03:45.589Z,18.10
2023-01-19T06:04:45.517Z,14.30
2023-01-19T06:05:45.545Z,11.70
2023-01-19T06:06:45.520Z,10.90
2023-01-19T06:07:52.003Z,9.40
2023-01-19T06:08:45.520Z,11.10
2023-01-19T06:09:45.534Z,10.80
2023-01-19T06:10:45.523Z,9.80
2023-01-19T06:11:45.469Z,8.10
2023-01-19T06:12:45.487Z,6.70
2023-01-19T06:13:45.455Z,6.30
2023-01-19T06:14:45.462Z,6.90
2023-01-19T06:15:45.484Z,6.50
2023-01-19T06:16:45.460Z,7.50
2023-01-19T06:17:45.384Z,10.40
2023-01-19T06:18:45.385Z,14.50
2023-01-19T06:19:45.412Z,17.50
2023-01-19T06:20:45.378Z,16.40
2023-01-19T06:21:45.342Z,11.70
2023-01-19T06:22:45.346Z,8.80
2023-01-19T06:23:45.353Z,10.40
2023-01-19T06:24:51.935Z,11.40
2023-01-19T06:25:54.096Z,10.80
2023-01-19T06:26:45.328Z,13.30
2023-01-19T06:27:45.305Z,16.00
2023-01-19T06:28:45.285Z,11.90
2023-01-19T06:29:45.296Z,9.00
2023-01-19T06:30:45.270Z,9.60
2023-01-19T06:31:45.310Z,10.10
2023-01-19T06:32:45.570Z,15.60
2023-01-19T06:33:45.940Z,16.30
2023-01-19T06:34:45.232Z,12.60
2023-01-19T06:35:45.347Z,17.40
2023-01-19T06:36:45.208Z,21.00
2023-01-19T06:37:45.223Z,26.40
2023-01-19T06:38:45.209Z,21.50
2023-01-19T06:39:45.168Z,20.80
2023-01-19T06:40:45.209Z,18.10
2023-01-19T06:41:45.178Z,18.40
2023-01-19T06:42:45.216Z,17.90
2023-01-19T06:43:45.160Z,20.50
2023-01-19T06:44:45.149Z,21.40
2023-01-19T06:45:46.009Z,25.60
2023-01-19T06:46:45.109Z,18.80
2023-01-19T06:47:45.100Z,16.30
2023-01-19T06:48:45.107Z,18.50
2023-01-19T06:49:45.153Z,15.70
2023-01-19T06:50:45.152Z,14.90
2023-01-19T06:51:45.078Z,14.60
2023-01-19T06:52:45.059Z,18.30
2023-01-19T06:53:45.052Z,28.70
2023-01-19T06:54:45.472Z,27.40
2023-01-19T06:55:45.058Z,26.00
2023-01-19T06:56:45.025Z,17.90
2023-01-19T06:57:51.605Z,16.40
2023-01-19T06:58:51.517Z,18.30
2023-01-19T06:59:51.535Z,19.20
2023-01-19T07:00:53.793Z,14.10
2023-01-19T07:01:45.162Z,19.50
2023-01-19T07:02:44.998Z,18.40
2023-01-19T07:03:52.498Z,19.50
2023-01-19T07:04:51.390Z,17.70
2023-01-19T07:05:53.712Z,19.30
2023-01-19T07:06:51.368Z,21.30
2023-01-19T07:07:53.062Z,21.40
2023-01-19T07:08:44.864Z,23.40
2023-01-19T07:09:44.835Z,22.10
2023-01-19T07:11:25.651Z,23.70
2023-01-19T07:11:51.315Z,23.50
2023-01-19T07:12:51.358Z,19.20
2023-01-19T07:13:51.348Z,24.90
2023-01-19T07:14:51.465Z,30.60
2023-01-19T07:15:44.834Z,33.50
2023-01-19T07:16:44.839Z,31.80
2023-01-19T07:17:44.807Z,33.00
2023-01-19T07:18:44.791Z,36.40
2023-01-19T07:19:44.746Z,30.90
2023-01-19T07:20:44.759Z,29.40
2023-01-19T07:21:44.898Z,23.50
2023-01-19T07:22:45.305Z,20.00
2023-01-19T07:23:44.702Z,13.20
2023-01-19T07:24:44.700Z,15.40
2023-01-19T07:25:44.708Z,21.20
2023-01-19T07:26:44.659Z,18.90
2023-01-19T07:27:44.683Z,19.30
2023-01-19T07:28:45.827Z,20.40
2023-01-19T07:29:44.693Z,29.70
2023-01-19T07:30:44.795Z,31.00
2023-01-19T07:31:44.805Z,40.70
2023-01-19T07:32:44.634Z,41.70
2023-01-19T07:33:44.693Z,46.70
2023-01-19T07:34:44.625Z,48.50
2023-01-19T07:35:44.656Z,49.80
2023-01-19T07:36:52.848Z,47.70
2023-01-19T07:37:44.582Z,48.60
2023-01-19T07:38:44.556Z,53.20
2023-01-19T07:39:44.695Z,49.90
2023-01-19T07:40:44.720Z,52.40
2023-01-19T07:41:44.695Z,50.10
2023-01-19T07:42:44.539Z,42.00
2023-01-19T07:43:44.573Z,39.30
2023-01-19T07:44:44.524Z,35.80
2023-01-19T07:45:44.504Z,41.60
2023-01-19T07:46:44.487Z,49.20
2023-01-19T07:47:44.496Z,39.30
2023-01-19T07:48:44.483Z,38.70
2023-01-19T07:49:44.482Z,36.70
2023-01-19T07:50:44.461Z,35.20
2023-01-19T07:51:44.441Z,40.20
2023-01-19T07:52:44.565Z,33.60
2023-01-19T07:53:44.408Z,32.30
2023-01-19T07:54:44.500Z,39.30
2023-01-19T07:55:44.391Z,37.60
2023-01-19T07:56:44.432Z,29.70
2023-01-19T07:57:44.356Z,32.70
2023-01-19T07:58:44.373Z,32.50
2023-01-19T07:59:44.381Z,29.70
2023-01-19T08:00:44.343Z,39.20
2023-01-19T08:01:44.437Z,44.10
2023-01-19T08:02:44.320Z,43.20
2023-01-19T08:03:44.334Z,46.20
2023-01-19T08:04:44.372Z,52.60
2023-01-19T08:05:44.277Z,42.40
2023-01-19T08:06:44.293Z,42.00
2023-01-19T08:07:44.406Z,49.70
2023-01-19T08:08:44.248Z,46.40
2023-01-19T08:09:44.236Z,43.20
2023-01-19T08:10:44.249Z,46.90
2023-01-19T08:11:44.250Z,41.70
2023-01-19T08:12:44.341Z,38.20
2023-01-19T08:13:44.273Z,36.80
2023-01-19T08:14:44.208Z,40.40
2023-01-19T08:15:44.215Z,47.60
2023-01-19T08:16:44.232Z,44.90
2023-01-19T08:17:44.180Z,33.90
2023-01-19T08:18:44.245Z,40.80
2023-01-19T08:19:44.155Z,51.50
2023-01-19T08:20:44.198Z,57.20
2023-01-19T08:21:44.175Z,55.70
2023-01-19T08:22:44.149Z,51.40
2023-01-19T08:23:44.155Z,51.10
2023-01-19T08:24:44.154Z,53.80
2023-01-19T08:25:44.157Z,55.10
2023-01-19T08:26:44.104Z,59.10
2023-01-19T08:27:44.105Z,54.20
2023-01-19T08:28:44.056Z,40.80
2023-01-19T08:29:44.086Z,41.60
2023-01-19T08:30:44.273Z,47.00
2023-01-19T08:31:44.196Z,46.30
2023-01-19T08:32:44.123Z,43.70
2023-01-19T08:33:44.005Z,38.10
2023-01-19T08:34:44.017Z,41.10
2023-01-19T08:35:43.997Z,48.80
2023-01-19T08:36:51.907Z,53.10
2023-01-19T08:37:50.560Z,51.70
2023-01-19T08:38:50.525Z,55.60
2023-01-19T08:39:43.946Z,52.60
2023-01-19T08:40:43.995Z,50.00
2023-01-19T08:41:43.956Z,45.20
2023-01-19T08:42:43.958Z,58.20
2023-01-19T08:43:43.918Z,52.20
2023-01-19T08:44:57.162Z,57.70
2023-01-19T08:45:43.962Z,48.10
2023-01-19T08:46:43.931Z,43.40
2023-01-19T08:47:43.890Z,42.10
2023-01-19T08:48:43.850Z,36.80
2023-01-19T08:49:43.846Z,38.30
2023-01-19T08:50:43.917Z,39.70
2023-01-19T08:51:43.864Z,33.30
2023-01-19T08:52:43.839Z,30.20
2023-01-19T08:53:43.853Z,30.60
2023-01-19T08:54:43.809Z,37.10
2023-01-19T08:55:43.833Z,36.70
2023-01-19T08:56:43.901Z,30.50
2023-01-19T08:57:43.781Z,35.20
2023-01-19T08:58:43.808Z,33.30
2023-01-19T08:59:43.795Z,36.80
2023-01-19T09:00:43.776Z,37.80
2023-01-19T09:01:43.888Z,36.10
2023-01-19T09:02:43.862Z,34.40
2023-01-19T09:03:43.763Z,34.70
2023-01-19T09:04:50.275Z,25.60
2023-01-19T09:05:43.731Z,28.50
2023-01-19T09:06:43.746Z,23.60
2023-01-19T09:07:43.756Z,28.00
2023-01-19T09:08:43.669Z,24.70
2023-01-19T09:09:43.662Z,26.60
2023-01-19T09:10:43.690Z,25.90
2023-01-19T09:11:52.395Z,25.10
2023-01-19T09:12:50.166Z,20.80
2023-01-19T09:13:43.638Z,28.90
2023-01-19T09:14:43.605Z,31.60
2023-01-19T09:15:43.767Z,26.70
2023-01-19T09:16:43.581Z,31.50
2023-01-19T09:17:43.683Z,35.50
2023-01-19T09:18:43.587Z,37.10
2023-01-19T09:19:43.564Z,29.90
2023-01-19T09:20:43.564Z,30.00
2023-01-19T09:21:43.558Z,36.90
2023-01-19T09:22:52.455Z,33.20
2023-01-19T09:23:43.542Z,32.90
2023-01-19T09:24:43.540Z,23.50
2023-01-19T09:25:43.500Z,21.50
2023-01-19T09:26:43.517Z,22.70
2023-01-19T09:27:43.554Z,21.70
2023-01-19T09:28:43.514Z,31.00
2023-01-19T09:29:50.069Z,25.90
2023-01-19T09:30:51.099Z,27.50
2023-01-19T09:31:50.036Z,34.40
2023-01-19T09:32:53.030Z,35.70
2023-01-19T09:33:55.016Z,35.30
2023-01-19T09:34:43.430Z,39.90
2023-01-19T09:35:43.399Z,33.60
2023-01-19T09:36:43.405Z,28.40
2023-01-19T09:37:43.421Z,19.80
2023-01-19T09:38:43.420Z,16.10
2023-01-19T09:39:43.430Z,12.80
2023-01-19T09:40:43.341Z,12.00
2023-01-19T09:41:43.339Z,18.00
2023-01-19T09:42:43.377Z,21.10
2023-01-19T09:43:43.328Z,24.30
2023-01-19T09:44:43.314Z,27.60
2023-01-19T09:45:43.295Z,26.40
2023-01-19T09:46:43.326Z,19.40
2023-01-19T09:47:43.315Z,20.90
2023-01-19T09:48:43.295Z,21.50
2023-01-19T09:49:43.254Z,17.70
2023-01-19T09:50:44.138Z,20.50
2023-01-19T09:51:43.282Z,21.40
2023-01-19T09:52:43.272Z,22.20
2023-01-19T09:53:43.226Z,21.90
2023-01-19T09:54:43.219Z,18.30
2023-01-19T09:55:43.247Z,21.30
2023-01-19T09:56:43.204Z,17.60
2023-01-19T09:57:43.224Z,19.00
2023-01-19T09:58:43.189Z,19.60
2023-01-19T09:59:43.163Z,20.30
2023-01-19T10:00:43.195Z,26.40
2023-01-19T10:01:43.215Z,26.80
2023-01-19T10:02:43.184Z,28.50
2023-01-19T10:03:43.144Z,23.80
2023-01-19T10:04:43.122Z,23.00
2023-01-19T10:05:43.101Z,25.80
2023-01-19T10:06:43.093Z,29.30
2023-01-19T10:07:43.123Z,38.40
2023-01-19T10:08:43.106Z,36.00
2023-01-19T10:09:43.075Z,30.70
2023-01-19T10:10:43.095Z,26.20
2023-01-19T10:11:52.717Z,18.90
2023-01-19T10:12:43.077Z,17.10
2023-01-19T10:13:43.020Z,21.30
2023-01-19T10:14:43.025Z,25.10
2023-01-19T10:15:43.005Z,21.60
2023-01-19T10:16:43.031Z,26.20
2023-01-19T10:17:43.022Z,21.40
2023-01-19T10:18:42.988Z,22.50
2023-01-19T10:19:44.177Z,25.10
2023-01-19T10:20:42.971Z,32.10
2023-01-19T10:21:43.029Z,21.80
2023-01-19T10:22:42.959Z,23.40
2023-01-19T10:23:42.979Z,25.40
2023-01-19T10:24:42.939Z,33.00
2023-01-19T10:25:42.952Z,20.30
2023-01-19T10:26:42.913Z,20.00
2023-01-19T10:27:42.946Z,31.10
2023-01-19T10:28:42.928Z,29.70
2023-01-19T10:29:42.856Z,24.40
2023-01-19T10:30:42.927Z,25.80
2023-01-19T10:31:43.020Z,24.70
2023-01-19T10:32:42.883Z,22.80
2023-01-19T10:33:42.837Z,21.00
2023-01-19T10:34:42.842Z,25.50
2023-01-19T10:35:42.807Z,29.90
2023-01-19T10:36:42.846Z,33.30
2023-01-19T10:37:42.897Z,30.40
2023-01-19T10:38:42.781Z,32.60
2023-01-19T10:39:42.773Z,28.30
2023-01-19T10:40:42.789Z,30.00
2023-01-19T10:41:42.821Z,28.30
2023-01-19T10:42:42.753Z,24.20
2023-01-19T10:43:42.751Z,26.40
2023-01-19T10:44:42.715Z,29.20
2023-01-19T10:45:42.731Z,29.00
2023-01-19T10:46:42.717Z,34.60
2023-01-19T10:47:42.733Z,31.50
2023-01-19T10:48:42.730Z,36.10
2023-01-19T10:49:42.679Z,24.70
2023-01-19T10:50:42.671Z,26.20
2023-01-19T10:51:49.313Z,29.40
2023-01-19T10:52:42.660Z,29.80
2023-01-19T10:53:42.705Z,26.40
2023-01-19T10:54:42.628Z,27.90
2023-01-19T10:55:42.593Z,26.00
2023-01-19T10:56:42.662Z,25.90
2023-01-19T10:57:42.714Z,37.80
2023-01-19T10:58:42.589Z,42.90
2023-01-19T10:59:49.101Z,42.70
2023-01-19T11:00:49.203Z,51.90
2023-01-19T11:01:49.515Z,35.20
2023-01-19T11:02:42.558Z,33.90
2023-01-19T11:03:42.572Z,45.30
2023-01-19T11:04:42.536Z,39.40
2023-01-19T11:05:42.505Z,22.80
2023-01-19T11:06:49.004Z,21.20
2023-01-19T11:07:49.998Z,21.50
2023-01-19T11:08:50.147Z,24.10
2023-01-19T11:09:50.174Z,30.20
2023-01-19T11:10:49.993Z,32.30
2023-01-19T11:11:48.943Z,32.30
2023-01-19T11:12:42.451Z,25.70
2023-01-19T11:13:42.491Z,21.90
2023-01-19T11:14:42.420Z,14.60
2023-01-19T11:15:42.413Z,19.70
2023-01-19T11:16:42.450Z,25.20
2023-01-19T11:17:42.412Z,23.20
2023-01-19T11:18:42.414Z,20.90
2023-01-19T11:19:42.362Z,17.20
2023-01-19T11:20:42.401Z,13.40
2023-01-19T11:21:42.351Z,13.00
2023-01-19T11:22:42.340Z,15.50
2023-01-19T11:23:42.376Z,14.90
2023-01-19T11:24:42.372Z,24.40
2023-01-19T11:25:42.302Z,30.80
2023-01-19T11:26:42.293Z,26.60
2023-01-19T11:27:42.284Z,17.80
2023-01-19T11:28:44.929Z,12.50
2023-01-19T11:29:42.274Z,13.30
2023-01-19T11:30:42.333Z,17.00
2023-01-19T11:31:42.277Z,20.50
2023-01-19T11:32:42.258Z,23.30
2023-01-19T11:33:42.253Z,26.00
2023-01-19T11:34:42.239Z,27.60
2023-01-19T11:35:42.220Z,18.10
2023-01-19T11:36:42.212Z,15.20
2023-01-19T11:37:42.195Z,13.20
2023-01-19T11:38:42.261Z,18.80
2023-01-19T11:39:42.159Z,13.40
2023-01-19T11:40:42.235Z,12.10
2023-01-19T11:41:42.158Z,11.80
2023-01-19T11:42:42.158Z,13.50
2023-01-19T11:43:49.000Z,16.20
2023-01-19T11:44:42.203Z,10.50
2023-01-19T11:45:42.107Z,11.00
2023-01-19T11:46:42.113Z,10.30
2023-01-19T11:47:49.716Z,11.30
2023-01-19T11:48:49.587Z,13.20
2023-01-19T11:49:49.749Z,11.90
2023-01-19T11:50:48.547Z,8.70
2023-01-19T11:51:42.066Z,8.70
2023-01-19T11:52:43.139Z,8.20
2023-01-19T11:53:42.042Z,15.80
2023-01-19T11:54:42.066Z,9.00
2023-01-19T11:55:41.996Z,11.40
2023-01-19T11:56:41.997Z,9.80
2023-01-19T11:57:41.986Z,10.90
2023-01-19T11:58:41.995Z,11.60
2023-01-19T11:59:41.989Z,16.20
2023-01-19T12:00:41.957Z,14.70
2023-01-19T12:01:48.451Z,12.50
2023-01-19T12:02:41.931Z,13.60
2023-01-19T12:03:42.065Z,12.00
2023-01-19T12:04:49.818Z,10.20
2023-01-19T12:05:48.516Z,7.10
2023-01-19T12:06:41.885Z,8.40
2023-01-19T12:07:41.877Z,9.80
2023-01-19T12:08:41.860Z,11.70
2023-01-19T12:09:41.891Z,15.10
2023-01-19T12:10:41.869Z,14.70
2023-01-19T12:11:41.855Z,16.50
2023-01-19T12:12:41.837Z,17.50
2023-01-19T12:13:41.827Z,15.20
2023-01-19T12:14:41.845Z,17.60
2023-01-19T12:15:41.789Z,18.00
2023-01-19T12:16:41.875Z,15.70
2023-01-19T12:17:41.779Z,12.40
2023-01-19T12:18:41.762Z,15.90
2023-01-19T12:19:41.773Z,12.10
2023-01-19T12:20:41.761Z,11.40
2023-01-19T12:21:41.727Z,10.40
2023-01-19T12:22:41.727Z,12.40
2023-01-19T12:23:41.710Z,8.00
2023-01-19T12:24:42.330Z,9.40
2023-01-19T12:25:41.729Z,10.40
2023-01-19T12:26:41.681Z,9.90
2023-01-19T12:27:41.659Z,9.30
2023-01-19T12:28:41.693Z,8.20
2023-01-19T12:29:41.979Z,12.60
2023-01-19T12:30:41.712Z,8.40
2023-01-19T12:31:41.768Z,7.10
2023-01-19T12:32:41.622Z,8.80
2023-01-19T12:33:41.686Z,11.30
2023-01-19T12:34:41.627Z,8.50
2023-01-19T12:35:41.627Z,8.20
2023-01-19T12:36:41.590Z,10.80
2023-01-19T12:37:41.614Z,9.00
2023-01-19T12:38:41.610Z,9.30
2023-01-19T12:39:41.599Z,10.20
2023-01-19T12:40:41.538Z,10.80
2023-01-19T12:41:41.582Z,8.20
2023-01-19T12:42:48.072Z,9.40
2023-01-19T12:43:41.504Z,11.30
2023-01-19T12:44:41.538Z,12.30
2023-01-19T12:45:41.475Z,8.60
2023-01-19T12:46:41.518Z,10.30
2023-01-19T12:47:41.599Z,10.50
2023-01-19T12:48:41.511Z,12.60
2023-01-19T12:49:41.489Z,13.40
2023-01-19T12:50:41.502Z,9.20
2023-01-19T12:51:41.464Z,12.20
2023-01-19T12:52:41.413Z,9.70
2023-01-19T12:53:41.405Z,11.00
2023-01-19T12:54:41.430Z,7.10
2023-01-19T12:55:41.391Z,9.50
2023-01-19T12:56:41.490Z,10.60
2023-01-19T12:57:41.388Z,11.20
2023-01-19T12:58:43.336Z,8.40
2023-01-19T12:59:41.763Z,8.70
2023-01-19T13:00:41.511Z,11.90